Time,TemperatureF,DewpointF,PressureIn,WindDirection,WindDirectionDegrees,WindSpeedMPH,WindSpeedGustMPH,Humidity,HourlyPrecipIn,Conditions,Clouds,dailyrainin,SoftwareType,DateUTC
2013-05-19 00:01:00,54.1,48.4,30.29,West,271,1.0,5.0,81,0.00,,CLR,0.00,VWS V14.00,2013-05-19 04:01:00,
2013-05-19 00:06:00,53.8,48.4,30.30,West,269,1.0,3.0,82,0.00,,CLR,0.00,VWS V14.00,2013-05-19 04:06:00,
2013-05-19 00:11:00,53.7,48.3,30.29,West,269,2.0,3.0,82,0.00,,CLR,0.00,VWS V14.00,2013-05-19 04:11:00,
2013-05-19 00:16:00,53.5,48.2,30.29,SW,222,2.0,4.0,82,0.00,,CLR,0.00,VWS V14.00,2013-05-19 04:16:00,
2013-05-19 00:21:00,53.4,48.4,30.30,SW,222,0.0,4.0,83,0.00,,CLR,0.00,VWS V14.00,2013-05-19 04:21:00,
2013-05-19 00:26:00,53.4,48.4,30.29,SW,222,0.0,4.0,83,0.00,,CLR,0.00,VWS V14.00,2013-05-19 04:26:00,
2013-05-19 00:31:00,53.2,48.5,30.30,SW,225,0.0,3.0,84,0.00,,CLR,0.00,VWS V14.00,2013-05-19 04:31:00,
2013-05-19 00:36:00,53.2,48.5,30.30,SW,227,2.0,4.0,84,0.00,,CLR,0.00,VWS V14.00,2013-05-19 04:36:00,
2013-05-19 00:41:00,53.1,48.4,30.29,SW,227,1.0,4.0,84,0.00,,CLR,0.00,VWS V14.00,2013-05-19 04:41:00,
2013-05-19 00:46:00,52.9,48.2,30.29,SW,227,0.0,4.0,84,0.00,,CLR,0.00,VWS V14.00,2013-05-19 04:46:00,
2013-05-19 00:51:00,52.8,48.1,30.30,SW,227,0.0,4.0,84,0.00,,CLR,0.00,VWS V14.00,2013-05-19 04:51:00,
2013-05-19 00:56:00,52.6,47.9,30.29,SW,227,1.0,4.0,84,0.00,,CLR,0.00,VWS V14.00,2013-05-19 04:56:00,
2013-05-19 01:01:00,52.5,48.1,30.29,SW,227,1.0,3.0,85,0.00,,BKN095,0.00,VWS V14.00,2013-05-19 05:01:00,
2013-05-19 01:06:00,52.3,48.2,30.29,SW,227,1.0,3.0,86,0.00,,BKN095,0.00,VWS V14.00,2013-05-19 05:06:00,
2013-05-19 01:11:00,52.2,47.8,30.29,SW,227,2.0,3.0,85,0.00,,BKN095,0.00,VWS V14.00,2013-05-19 05:11:00,
2013-05-19 01:16:00,52.1,48.0,30.29,SW,227,1.0,3.0,86,0.00,,BKN095,0.00,VWS V14.00,2013-05-19 05:16:00,
2013-05-19 01:21:00,52.1,48.0,30.29,South,187,2.0,4.0,86,0.00,,BKN095,0.00,VWS V14.00,2013-05-19 05:21:00,
2013-05-19 01:26:00,52.1,48.0,30.29,South,187,0.0,4.0,86,0.00,,BKN095,0.00,VWS V14.00,2013-05-19 05:26:00,
2013-05-19 01:31:00,51.9,47.8,30.29,South,187,0.0,3.0,86,0.00,,BKN095,0.00,VWS V14.00,2013-05-19 05:31:00,
2013-05-19 01:36:00,51.8,47.8,30.30,South,181,0.0,3.0,86,0.00,,BKN095,0.00,VWS V14.00,2013-05-19 05:36:00,
2013-05-19 01:41:00,51.8,47.8,30.29,South,181,1.0,3.0,86,0.00,,BKN095,0.00,VWS V14.00,2013-05-19 05:41:00,
2013-05-19 01:46:00,51.6,47.9,30.30,South,181,0.0,3.0,87,0.00,,BKN095,0.00,VWS V14.00,2013-05-19 05:46:00,
2013-05-19 01:51:00,51.5,47.5,30.30,South,181,1.0,3.0,86,0.00,,BKN095,0.00,VWS V14.00,2013-05-19 05:51:00,
2013-05-19 01:56:00,51.3,47.6,30.29,South,181,0.0,3.0,87,0.00,,BKN095,0.00,VWS V14.00,2013-05-19 05:56:00,
2013-05-19 02:01:00,51.2,47.5,30.30,South,181,0.0,2.0,87,0.00,,BKN100,0.00,VWS V14.00,2013-05-19 06:01:00,
2013-05-19 02:06:00,51.0,47.6,30.30,South,181,0.0,3.0,88,0.00,,BKN100,0.00,VWS V14.00,2013-05-19 06:06:00,
2013-05-19 02:11:00,50.7,47.3,30.30,South,181,1.0,3.0,88,0.00,,BKN100,0.00,VWS V14.00,2013-05-19 06:11:00,
2013-05-19 02:16:00,50.6,47.5,30.30,South,181,0.0,3.0,89,0.00,,BKN100,0.00,VWS V14.00,2013-05-19 06:16:00,
2013-05-19 02:21:00,50.4,47.6,30.30,South,181,1.0,3.0,90,0.00,,BKN100,0.00,VWS V14.00,2013-05-19 06:21:00,
2013-05-19 02:26:00,50.3,47.5,30.30,South,181,1.0,3.0,90,0.00,,BKN100,0.00,VWS V14.00,2013-05-19 06:26:00,
2013-05-19 02:31:00,50.3,47.5,30.30,South,181,1.0,2.0,90,0.00,,BKN100,0.00,VWS V14.00,2013-05-19 06:31:00,
2013-05-19 02:36:00,50.1,47.6,30.30,South,181,2.0,3.0,91,0.00,,BKN100,0.00,VWS V14.00,2013-05-19 06:36:00,
2013-05-19 02:41:00,50.0,47.5,30.30,South,181,2.0,3.0,91,0.00,,BKN100,0.00,VWS V14.00,2013-05-19 06:41:00,
2013-05-19 02:46:00,50.0,47.8,30.30,South,181,0.0,3.0,92,0.00,,BKN100,0.00,VWS V14.00,2013-05-19 06:46:00,
2013-05-19 02:51:00,50.0,47.8,30.29,South,181,1.0,3.0,92,0.00,,BKN100,0.00,VWS V14.00,2013-05-19 06:51:00,
2013-05-19 02:56:00,49.9,47.7,30.30,South,181,1.0,3.0,92,0.00,,BKN100,0.00,VWS V14.00,2013-05-19 06:56:00,
2013-05-19 03:01:00,49.9,47.7,30.30,South,181,0.0,2.0,92,0.00,,CLR,0.00,VWS V14.00,2013-05-19 07:01:00,
2013-05-19 03:06:00,49.9,47.7,30.29,South,181,0.0,2.0,92,0.00,,CLR,0.00,VWS V14.00,2013-05-19 07:06:00,
2013-05-19 03:11:00,50.0,48.1,30.29,South,181,2.0,2.0,93,0.00,,CLR,0.00,VWS V14.00,2013-05-19 07:11:00,
2013-05-19 03:16:00,50.0,48.1,30.29,South,181,0.0,3.0,93,0.00,,CLR,0.00,VWS V14.00,2013-05-19 07:16:00,
2013-05-19 03:21:00,50.0,48.1,30.30,South,181,0.0,3.0,93,0.00,,CLR,0.00,VWS V14.00,2013-05-19 07:21:00,
2013-05-19 03:26:00,50.0,48.1,30.30,South,181,1.0,3.0,93,0.00,,CLR,0.00,VWS V14.00,2013-05-19 07:26:00,
2013-05-19 03:31:00,50.0,48.1,30.30,South,181,1.0,2.0,93,0.00,,CLR,0.00,VWS V14.00,2013-05-19 07:31:00,
2013-05-19 03:36:00,50.0,48.1,30.30,South,181,1.0,2.0,93,0.00,,CLR,0.00,VWS V14.00,2013-05-19 07:36:00,
2013-05-19 03:41:00,49.9,48.2,30.30,South,181,0.0,2.0,94,0.00,,CLR,0.00,VWS V14.00,2013-05-19 07:41:00,
2013-05-19 03:46:00,49.9,48.0,30.30,South,181,0.0,2.0,93,0.00,,CLR,0.00,VWS V14.00,2013-05-19 07:46:00,
2013-05-19 03:51:00,49.9,48.2,30.30,South,181,0.0,2.0,94,0.00,,CLR,0.00,VWS V14.00,2013-05-19 07:51:00,
2013-05-19 03:56:00,49.7,48.0,30.30,South,182,0.0,3.0,94,0.00,,CLR,0.00,VWS V14.00,2013-05-19 07:56:00,
2013-05-19 04:01:00,49.6,48.0,30.30,South,182,0.0,2.0,94,0.00,,CLR,0.00,VWS V14.00,2013-05-19 08:01:00,
2013-05-19 04:06:00,49.4,47.8,30.30,South,182,0.0,2.0,94,0.00,,CLR,0.00,VWS V14.00,2013-05-19 08:06:00,
2013-05-19 04:11:00,49.3,47.7,30.30,South,182,1.0,2.0,94,0.00,,CLR,0.00,VWS V14.00,2013-05-19 08:11:00,
2013-05-19 04:16:00,49.1,47.5,30.30,South,182,1.0,2.0,94,0.00,,CLR,0.00,VWS V14.00,2013-05-19 08:16:00,
2013-05-19 04:21:00,49.0,47.6,30.30,South,182,1.0,2.0,95,0.00,,CLR,0.00,VWS V14.00,2013-05-19 08:21:00,
2013-05-19 04:26:00,48.8,47.4,30.30,South,182,0.0,2.0,95,0.00,,CLR,0.00,VWS V14.00,2013-05-19 08:26:00,
2013-05-19 04:31:00,48.7,47.3,30.30,South,182,0.0,0.0,95,0.00,,CLR,0.00,VWS V14.00,2013-05-19 08:31:00,
2013-05-19 04:36:00,48.5,47.1,30.30,South,182,1.0,2.0,95,0.00,,CLR,0.00,VWS V14.00,2013-05-19 08:36:00,
2013-05-19 04:41:00,48.4,47.0,30.30,South,182,0.0,3.0,95,0.00,,CLR,0.00,VWS V14.00,2013-05-19 08:41:00,
2013-05-19 04:46:00,48.4,47.0,30.30,South,182,0.0,3.0,95,0.00,,CLR,0.00,VWS V14.00,2013-05-19 08:46:00,
2013-05-19 04:51:00,48.6,47.2,30.30,South,182,0.0,3.0,95,0.00,,CLR,0.00,VWS V14.00,2013-05-19 08:51:00,
2013-05-19 04:56:00,48.5,47.1,30.31,South,182,2.0,3.0,95,0.00,,CLR,0.00,VWS V14.00,2013-05-19 08:56:00,
2013-05-19 05:01:00,48.5,47.4,30.31,South,182,0.0,3.0,96,0.00,,CLR,0.00,VWS V14.00,2013-05-19 09:01:00,
2013-05-19 05:06:00,48.5,47.4,30.31,South,182,1.0,3.0,96,0.00,,CLR,0.00,VWS V14.00,2013-05-19 09:06:00,
2013-05-19 05:11:00,48.5,47.4,30.31,South,182,0.0,3.0,96,0.00,,CLR,0.00,VWS V14.00,2013-05-19 09:11:00,
2013-05-19 05:16:00,48.4,47.3,30.32,South,182,0.0,3.0,96,0.00,,CLR,0.00,VWS V14.00,2013-05-19 09:16:00,
2013-05-19 05:21:00,48.4,47.0,30.32,South,182,0.0,3.0,95,0.00,,CLR,0.00,VWS V14.00,2013-05-19 09:21:00,
2013-05-19 05:26:00,48.3,46.9,30.32,South,182,0.0,3.0,95,0.00,,CLR,0.00,VWS V14.00,2013-05-19 09:26:00,
2013-05-19 05:31:00,47.9,46.5,30.32,South,182,0.0,2.0,95,0.00,,CLR,0.00,VWS V14.00,2013-05-19 09:31:00,
2013-05-19 05:36:00,47.8,46.7,30.32,South,182,0.0,2.0,96,0.00,,CLR,0.00,VWS V14.00,2013-05-19 09:36:00,
2013-05-19 05:41:00,47.8,46.7,30.32,South,182,0.0,2.0,96,0.00,,CLR,0.00,VWS V14.00,2013-05-19 09:41:00,
2013-05-19 05:46:00,47.6,46.5,30.32,South,182,0.0,2.0,96,0.00,,CLR,0.00,VWS V14.00,2013-05-19 09:46:00,
2013-05-19 05:51:00,47.6,46.8,30.32,South,182,0.0,2.0,97,0.00,,CLR,0.00,VWS V14.00,2013-05-19 09:51:00,
2013-05-19 05:56:00,47.6,46.5,30.32,South,182,0.0,2.0,96,0.00,,CLR,0.00,VWS V14.00,2013-05-19 09:56:00,
2013-05-19 06:01:00,47.5,46.7,30.33,South,182,0.0,2.0,97,0.00,,,0.00,VWS V14.00,2013-05-19 10:01:00,
2013-05-19 06:06:00,47.5,46.7,30.33,South,182,0.0,2.0,97,0.00,,,0.00,VWS V14.00,2013-05-19 10:06:00,
2013-05-19 06:11:00,47.5,47.0,30.33,South,182,0.0,2.0,98,0.00,,,0.00,VWS V14.00,2013-05-19 10:11:00,
2013-05-19 06:16:00,47.5,46.7,30.33,South,182,0.0,2.0,97,0.00,,,0.00,VWS V14.00,2013-05-19 10:16:00,
2013-05-19 06:21:00,47.5,46.7,30.33,South,182,1.0,2.0,97,0.00,,,0.00,VWS V14.00,2013-05-19 10:21:00,
2013-05-19 06:26:00,47.6,47.1,30.34,South,182,0.0,2.0,98,0.00,,,0.00,VWS V14.00,2013-05-19 10:26:00,
2013-05-19 06:31:00,47.6,46.8,30.34,South,182,0.0,1.0,97,0.00,,,0.00,VWS V14.00,2013-05-19 10:31:00,
2013-05-19 06:36:00,47.8,47.0,30.34,South,182,0.0,1.0,97,0.00,,,0.00,VWS V14.00,2013-05-19 10:36:00,
2013-05-19 06:41:00,47.9,47.1,30.34,South,182,0.0,1.0,97,0.00,,,0.00,VWS V14.00,2013-05-19 10:41:00,
2013-05-19 06:46:00,48.1,47.3,30.34,South,182,0.0,1.0,97,0.00,,,0.00,VWS V14.00,2013-05-19 10:46:00,
2013-05-19 06:51:00,48.3,47.5,30.34,South,182,0.0,1.0,97,0.00,,,0.00,VWS V14.00,2013-05-19 10:51:00,
2013-05-19 06:56:00,48.6,47.8,30.34,South,182,0.0,1.0,97,0.00,,,0.00,VWS V14.00,2013-05-19 10:56:00,
2013-05-19 07:01:00,49.1,48.3,30.34,South,182,0.0,3.0,97,0.00,,,0.00,VWS V14.00,2013-05-19 11:01:00,
2013-05-19 07:06:00,49.9,49.1,30.34,South,182,1.0,3.0,97,0.00,,,0.00,VWS V14.00,2013-05-19 11:06:00,
2013-05-19 07:11:00,50.4,49.3,30.34,South,182,0.0,3.0,96,0.00,,,0.00,VWS V14.00,2013-05-19 11:11:00,
2013-05-19 07:16:00,51.3,49.9,30.34,South,182,0.0,3.0,95,0.00,,,0.00,VWS V14.00,2013-05-19 11:16:00,
2013-05-19 07:21:00,52.1,50.4,30.34,SSW,202,1.0,3.0,94,0.00,,,0.00,VWS V14.00,2013-05-19 11:21:00,
2013-05-19 07:26:00,52.5,50.2,30.35,SSW,202,0.0,3.0,92,0.00,,,0.00,VWS V14.00,2013-05-19 11:26:00,
2013-05-19 07:31:00,52.9,50.6,30.34,SSW,202,0.0,3.0,92,0.00,,,0.00,VWS V14.00,2013-05-19 11:31:00,
2013-05-19 07:36:00,53.4,50.8,30.34,SSW,202,2.0,3.0,91,0.00,,,0.00,VWS V14.00,2013-05-19 11:36:00,
2013-05-19 07:41:00,53.7,50.5,30.34,SSW,202,0.0,3.0,89,0.00,,,0.00,VWS V14.00,2013-05-19 11:41:00,
2013-05-19 07:46:00,54.0,50.5,30.34,SSW,202,0.0,4.0,88,0.00,,,0.00,VWS V14.00,2013-05-19 11:46:00,
2013-05-19 07:51:00,54.2,50.4,30.34,SSW,202,0.0,4.0,87,0.00,,,0.00,VWS V14.00,2013-05-19 11:51:00,
2013-05-19 07:56:00,54.5,50.7,30.34,SSW,202,0.0,4.0,87,0.00,,,0.00,VWS V14.00,2013-05-19 11:56:00,
2013-05-19 08:01:00,55.3,51.5,30.34,South,178,0.0,4.0,87,0.00,,,0.00,VWS V14.00,2013-05-19 12:01:00,
2013-05-19 08:06:00,56.0,51.6,30.34,WSW,250,2.0,5.0,85,0.00,,,0.00,VWS V14.00,2013-05-19 12:06:00,
2013-05-19 08:11:00,56.5,51.4,30.34,West,260,0.0,5.0,83,0.00,,,0.00,VWS V14.00,2013-05-19 12:11:00,
2013-05-19 08:16:00,57.1,51.7,30.35,West,260,1.0,5.0,82,0.00,,,0.00,VWS V14.00,2013-05-19 12:16:00,
2013-05-19 08:21:00,57.7,51.9,30.34,West,261,0.0,5.0,81,0.00,,,0.00,VWS V14.00,2013-05-19 12:21:00,
2013-05-19 08:26:00,58.0,51.9,30.34,West,262,3.0,5.0,80,0.00,,,0.00,VWS V14.00,2013-05-19 12:26:00,
2013-05-19 08:31:00,58.3,51.5,30.35,West,272,2.0,4.0,78,0.00,,,0.00,VWS V14.00,2013-05-19 12:31:00,
2013-05-19 08:36:00,58.4,51.6,30.35,West,269,2.0,4.0,78,0.00,,,0.00,VWS V14.00,2013-05-19 12:36:00,
2013-05-19 08:41:00,58.7,51.5,30.34,West,276,1.0,5.0,77,0.00,,,0.00,VWS V14.00,2013-05-19 12:41:00,
2013-05-19 08:46:00,59.2,51.7,30.35,West,276,1.0,5.0,76,0.00,,,0.00,VWS V14.00,2013-05-19 12:46:00,
2013-05-19 08:51:00,59.5,51.9,30.34,West,276,0.0,5.0,76,0.00,,,0.00,VWS V14.00,2013-05-19 12:51:00,
2013-05-19 08:56:00,59.8,51.9,30.35,West,275,1.0,5.0,75,0.00,,,0.00,VWS V14.00,2013-05-19 12:56:00,
2013-05-19 09:01:00,60.3,52.7,30.35,West,275,0.0,2.0,76,0.00,,SCT006,0.00,VWS V14.00,2013-05-19 13:01:00,
2013-05-19 09:06:00,60.6,52.3,30.35,NW,305,3.0,6.0,74,0.00,,SCT006,0.00,VWS V14.00,2013-05-19 13:06:00,
2013-05-19 09:11:00,60.7,52.0,30.35,NNW,336,1.0,6.0,73,0.00,,SCT006,0.00,VWS V14.00,2013-05-19 13:11:00,
2013-05-19 09:16:00,60.7,52.4,30.35,NNW,336,1.0,6.0,74,0.00,,SCT006,0.00,VWS V14.00,2013-05-19 13:16:00,
2013-05-19 09:21:00,61.4,53.0,30.35,NNW,336,2.0,6.0,74,0.00,,SCT006,0.00,VWS V14.00,2013-05-19 13:21:00,
2013-05-19 09:26:00,62.0,52.9,30.35,NNW,333,1.0,6.0,72,0.00,,SCT006,0.00,VWS V14.00,2013-05-19 13:26:00,
2013-05-19 09:31:00,62.5,53.4,30.35,NNW,334,2.0,5.0,72,0.00,,SCT006,0.00,VWS V14.00,2013-05-19 13:31:00,
2013-05-19 09:36:00,63.1,53.6,30.35,NNW,334,0.0,5.0,71,0.00,,SCT006,0.00,VWS V14.00,2013-05-19 13:36:00,
2013-05-19 09:41:00,63.1,53.2,30.35,NNW,334,1.0,6.0,70,0.00,,SCT006,0.00,VWS V14.00,2013-05-19 13:41:00,
2013-05-19 09:46:00,63.7,53.0,30.35,NNW,334,1.0,6.0,68,0.00,,SCT006,0.00,VWS V14.00,2013-05-19 13:46:00,
2013-05-19 09:51:00,64.2,53.8,30.34,NNW,334,1.0,6.0,69,0.00,,SCT006,0.00,VWS V14.00,2013-05-19 13:51:00,
2013-05-19 09:56:00,64.7,54.3,30.34,NNW,334,1.0,6.0,69,0.00,,SCT006,0.00,VWS V14.00,2013-05-19 13:56:00,
2013-05-19 10:01:00,65.2,54.0,30.34,NNW,330,1.0,5.0,67,0.00,,SCT250,0.00,VWS V14.00,2013-05-19 14:01:00,
2013-05-19 10:06:00,65.3,53.7,30.34,SE,144,2.0,5.0,66,0.00,,SCT250,0.00,VWS V14.00,2013-05-19 14:06:00,
2013-05-19 10:11:00,65.4,53.8,30.34,WNW,295,0.0,5.0,66,0.00,,SCT250,0.00,VWS V14.00,2013-05-19 14:11:00,
2013-05-19 10:16:00,65.8,54.1,30.34,North,0,4.0,6.0,66,0.00,,SCT250,0.00,VWS V14.00,2013-05-19 14:16:00,
2013-05-19 10:21:00,66.3,53.3,30.34,NW,325,1.0,9.0,63,0.00,,SCT250,0.00,VWS V14.00,2013-05-19 14:21:00,
2013-05-19 10:26:00,67.1,54.5,30.34,WSW,250,2.0,9.0,64,0.00,,SCT250,0.00,VWS V14.00,2013-05-19 14:26:00,
2013-05-19 10:31:00,67.5,54.5,30.34,SW,228,3.0,4.0,63,0.00,,SCT250,0.00,VWS V14.00,2013-05-19 14:31:00,
2013-05-19 10:36:00,67.5,53.6,30.33,South,183,2.0,4.0,61,0.00,,SCT250,0.00,VWS V14.00,2013-05-19 14:36:00,
2013-05-19 10:41:00,67.8,54.8,30.34,NNW,328,3.0,5.0,63,0.00,,SCT250,0.00,VWS V14.00,2013-05-19 14:41:00,
2013-05-19 10:46:00,68.1,54.2,30.34,WSW,245,3.0,7.0,61,0.00,,SCT250,0.00,VWS V14.00,2013-05-19 14:46:00,
2013-05-19 10:51:00,67.8,54.3,30.34,WSW,243,1.0,7.0,62,0.00,,SCT250,0.00,VWS V14.00,2013-05-19 14:51:00,
2013-05-19 10:56:00,67.6,53.7,30.34,SW,232,4.0,7.0,61,0.00,,SCT250,0.00,VWS V14.00,2013-05-19 14:56:00,
2013-05-19 11:01:00,67.3,53.8,30.34,WSW,244,4.0,4.0,62,0.00,,SCT250,0.00,VWS V14.00,2013-05-19 15:01:00,
2013-05-19 11:06:00,67.6,54.1,30.33,WSW,258,5.0,5.0,62,0.00,,SCT250,0.00,VWS V14.00,2013-05-19 15:06:00,
2013-05-19 11:11:00,68.0,53.6,30.33,South,174,2.0,6.0,60,0.00,,SCT250,0.00,VWS V14.00,2013-05-19 15:11:00,
2013-05-19 11:16:00,68.6,54.6,30.33,SSW,208,3.0,6.0,61,0.00,,SCT250,0.00,VWS V14.00,2013-05-19 15:16:00,
2013-05-19 11:21:00,68.4,53.5,30.33,South,185,1.0,6.0,59,0.00,,SCT250,0.00,VWS V14.00,2013-05-19 15:21:00,
2013-05-19 11:26:00,69.1,53.7,30.33,NNW,341,2.0,6.0,58,0.00,,SCT250,0.00,VWS V14.00,2013-05-19 15:26:00,
2013-05-19 11:31:00,69.3,53.9,30.33,South,182,3.0,5.0,58,0.00,,SCT250,0.00,VWS V14.00,2013-05-19 15:31:00,
2013-05-19 11:36:00,69.1,53.2,30.33,WNW,292,2.0,6.0,57,0.00,,SCT250,0.00,VWS V14.00,2013-05-19 15:36:00,
2013-05-19 11:41:00,69.1,53.7,30.32,South,190,1.0,6.0,58,0.00,,SCT250,0.00,VWS V14.00,2013-05-19 15:41:00,
2013-05-19 11:46:00,68.9,53.5,30.32,West,264,1.0,6.0,58,0.00,,SCT250,0.00,VWS V14.00,2013-05-19 15:46:00,
2013-05-19 11:51:00,69.6,54.2,30.32,SW,214,4.0,6.0,58,0.00,,SCT250,0.00,VWS V14.00,2013-05-19 15:51:00,
2013-05-19 11:56:00,69.8,55.3,30.32,SW,225,3.0,7.0,60,0.00,,SCT250,0.00,VWS V14.00,2013-05-19 15:56:00,
2013-05-19 12:01:00,69.4,53.5,30.32,SW,234,0.0,4.0,57,0.00,,CLR,0.00,VWS V14.00,2013-05-19 16:01:00,
2013-05-19 12:06:00,69.3,53.9,30.32,SW,236,1.0,4.0,58,0.00,,CLR,0.00,VWS V14.00,2013-05-19 16:06:00,
2013-05-19 12:11:00,68.9,53.5,30.32,SW,235,2.0,4.0,58,0.00,,CLR,0.00,VWS V14.00,2013-05-19 16:11:00,
2013-05-19 12:16:00,68.4,54.0,30.32,WSW,237,1.0,4.0,60,0.00,,CLR,0.00,VWS V14.00,2013-05-19 16:16:00,
2013-05-19 12:21:00,68.0,52.7,30.32,WSW,237,1.0,4.0,58,0.00,,CLR,0.00,VWS V14.00,2013-05-19 16:21:00,
2013-05-19 12:26:00,67.8,53.9,30.31,South,188,0.0,5.0,61,0.00,,CLR,0.00,VWS V14.00,2013-05-19 16:26:00,
2013-05-19 12:31:00,68.4,54.4,30.31,SW,230,4.0,4.0,61,0.00,,CLR,0.00,VWS V14.00,2013-05-19 16:31:00,
2013-05-19 12:36:00,68.5,54.1,30.31,West,279,2.0,6.0,60,0.00,,CLR,0.00,VWS V14.00,2013-05-19 16:36:00,
2013-05-19 12:41:00,68.3,53.4,30.31,NNW,331,2.0,6.0,59,0.00,,CLR,0.00,VWS V14.00,2013-05-19 16:41:00,
2013-05-19 12:46:00,68.3,53.4,30.31,SW,227,2.0,6.0,59,0.00,,CLR,0.00,VWS V14.00,2013-05-19 16:46:00,
2013-05-19 12:51:00,68.3,53.4,30.31,NNW,332,5.0,8.0,59,0.00,,CLR,0.00,VWS V14.00,2013-05-19 16:51:00,
2013-05-19 12:56:00,68.5,54.1,30.31,NW,318,0.0,8.0,60,0.00,,CLR,0.00,VWS V14.00,2013-05-19 16:56:00,
2013-05-19 13:01:00,69.1,53.7,30.31,ESE,123,3.0,6.0,58,0.00,,SCT055,0.00,VWS V14.00,2013-05-19 17:01:00,
2013-05-19 13:06:00,69.8,53.9,30.30,SSE,156,3.0,7.0,57,0.00,,SCT055,0.00,VWS V14.00,2013-05-19 17:06:00,
2013-05-19 13:11:00,69.8,53.9,30.30,SSW,211,2.0,7.0,57,0.00,,SCT055,0.00,VWS V14.00,2013-05-19 17:11:00,
2013-05-19 13:16:00,69.9,54.5,30.30,SW,226,2.0,7.0,58,0.00,,SCT055,0.00,VWS V14.00,2013-05-19 17:16:00,
2013-05-19 13:21:00,70.1,53.7,30.30,SSW,198,5.0,7.0,56,0.00,,SCT055,0.00,VWS V14.00,2013-05-19 17:21:00,
2013-05-19 13:26:00,69.1,53.2,30.29,SW,225,4.0,7.0,57,0.00,,SCT055,0.00,VWS V14.00,2013-05-19 17:26:00,
2013-05-19 13:31:00,68.8,53.9,30.29,SSW,195,2.0,6.0,59,0.00,,SCT055,0.00,VWS V14.00,2013-05-19 17:31:00,
2013-05-19 13:36:00,68.5,53.6,30.28,SE,128,2.0,6.0,59,0.00,,SCT055,0.00,VWS V14.00,2013-05-19 17:36:00,
2013-05-19 13:41:00,69.1,54.2,30.28,SE,137,1.0,6.0,59,0.00,,SCT055,0.00,VWS V14.00,2013-05-19 17:41:00,
2013-05-19 13:46:00,69.1,53.7,30.28,ESE,116,3.0,8.0,58,0.00,,SCT055,0.00,VWS V14.00,2013-05-19 17:46:00,
2013-05-19 13:50:00,68.9,53.5,30.28,SSW,195,1.0,8.0,58,0.00,,SCT055,0.00,VWS V14.00,2013-05-19 17:50:00,
2013-05-19 13:55:00,69.0,53.6,30.28,South,174,4.0,8.0,58,0.00,,SCT055,0.00,VWS V14.00,2013-05-19 17:55:00,
2013-05-19 14:00:00,68.8,53.0,30.28,WNW,296,1.0,5.0,57,0.00,,BKN065,0.00,VWS V14.00,2013-05-19 18:00:00,
2013-05-19 14:05:00,68.8,53.9,30.27,South,190,0.0,5.0,59,0.00,,BKN065,0.00,VWS V14.00,2013-05-19 18:05:00,
2013-05-19 14:10:00,68.8,54.4,30.28,SW,223,3.0,7.0,60,0.00,,BKN065,0.00,VWS V14.00,2013-05-19 18:10:00,
2013-05-19 14:15:00,68.3,53.0,30.27,SE,136,5.0,7.0,58,0.00,,BKN065,0.00,VWS V14.00,2013-05-19 18:15:00,
2013-05-19 14:20:00,68.3,53.9,30.28,South,189,4.0,7.0,60,0.00,,BKN065,0.00,VWS V14.00,2013-05-19 18:20:00,
2013-05-19 14:25:00,68.1,53.2,30.27,SE,139,4.0,7.0,59,0.00,,BKN065,0.00,VWS V14.00,2013-05-19 18:25:00,
2013-05-19 14:30:00,68.1,54.2,30.27,SE,129,1.0,4.0,61,0.00,,BKN065,0.00,VWS V14.00,2013-05-19 18:30:00,
2013-05-19 14:35:00,68.1,53.2,30.27,SE,141,2.0,7.0,59,0.00,,BKN065,0.00,VWS V14.00,2013-05-19 18:35:00,
2013-05-19 14:40:00,68.4,54.0,30.27,SSW,213,3.0,9.0,60,0.00,,BKN065,0.00,VWS V14.00,2013-05-19 18:40:00,
2013-05-19 14:45:00,68.8,53.4,30.27,SW,218,1.0,9.0,58,0.00,,BKN065,0.00,VWS V14.00,2013-05-19 18:45:00,
2013-05-19 14:50:00,68.6,52.8,30.27,SSE,167,2.0,9.0,57,0.00,,BKN065,0.00,VWS V14.00,2013-05-19 18:50:00,
2013-05-19 14:55:00,68.6,53.2,30.27,South,175,0.0,9.0,58,0.00,,BKN065,0.00,VWS V14.00,2013-05-19 18:55:00,
2013-05-19 15:00:00,68.4,53.5,30.27,NNW,329,1.0,6.0,59,0.00,,BKN070,0.00,VWS V14.00,2013-05-19 19:00:00,
2013-05-19 15:05:00,68.5,54.1,30.27,NW,305,3.0,6.0,60,0.00,,BKN070,0.00,VWS V14.00,2013-05-19 19:05:00,
2013-05-19 15:10:00,68.3,54.3,30.27,SW,228,1.0,6.0,61,0.00,,BKN070,0.00,VWS V14.00,2013-05-19 19:10:00,
2013-05-19 15:15:00,68.0,53.6,30.27,SW,226,2.0,6.0,60,0.00,,BKN070,0.00,VWS V14.00,2013-05-19 19:15:00,
2013-05-19 15:20:00,67.6,53.7,30.27,WSW,243,1.0,6.0,61,0.00,,BKN070,0.00,VWS V14.00,2013-05-19 19:20:00,
2013-05-19 15:25:00,67.3,53.4,30.27,WSW,258,1.0,6.0,61,0.00,,BKN070,0.00,VWS V14.00,2013-05-19 19:25:00,
2013-05-19 15:30:00,66.9,53.9,30.26,ESE,113,3.0,5.0,63,0.00,,BKN070,0.00,VWS V14.00,2013-05-19 19:30:00,
2013-05-19 15:35:00,65.9,54.2,30.27,NNE,24,1.0,5.0,66,0.00,,BKN070,0.00,VWS V14.00,2013-05-19 19:35:00,
2013-05-19 15:40:00,65.0,54.6,30.27,NNE,24,1.0,5.0,69,0.00,,BKN070,0.00,VWS V14.00,2013-05-19 19:40:00,
2013-05-19 15:45:00,64.1,54.1,30.27,NNE,24,2.0,5.0,70,0.00,,BKN070,0.00,VWS V14.00,2013-05-19 19:45:00,
2013-05-19 15:50:00,62.9,53.8,30.27,NNE,24,3.0,5.0,72,0.00,,BKN070,0.00,VWS V14.00,2013-05-19 19:50:00,
2013-05-19 15:55:00,62.3,53.9,30.27,NNE,24,1.0,5.0,74,0.00,,BKN070,0.00,VWS V14.00,2013-05-19 19:55:00,
2013-05-19 16:00:00,61.8,53.8,30.28,NNE,24,1.0,3.0,75,0.00,,OVC070,0.00,VWS V14.00,2013-05-19 20:00:00,
2013-05-19 16:05:00,61.2,53.2,30.28,NE,37,2.0,5.0,75,0.00,,OVC070,0.00,VWS V14.00,2013-05-19 20:05:00,
2013-05-19 16:10:00,60.2,53.0,30.28,NE,37,1.0,5.0,77,0.00,,OVC070,0.00,VWS V14.00,2013-05-19 20:10:00,
2013-05-19 16:15:00,59.6,52.7,30.28,NNE,24,3.0,5.0,78,0.00,,OVC070,0.00,VWS V14.00,2013-05-19 20:15:00,
2013-05-19 16:20:00,59.0,52.5,30.28,NNE,27,3.0,5.0,79,0.00,,OVC070,0.00,VWS V14.00,2013-05-19 20:20:00,
2013-05-19 16:25:00,58.7,52.9,30.28,NNE,28,1.0,5.0,81,0.00,,OVC070,0.00,VWS V14.00,2013-05-19 20:25:00,
2013-05-19 16:30:00,58.3,52.5,30.28,NNE,30,2.0,4.0,81,0.00,,OVC070,0.00,VWS V14.00,2013-05-19 20:30:00,
2013-05-19 16:35:00,58.0,52.5,30.28,NNE,20,2.0,6.0,82,0.00,,OVC070,0.00,VWS V14.00,2013-05-19 20:35:00,
2013-05-19 16:40:00,57.5,52.4,30.28,NNE,17,2.0,6.0,83,0.00,,OVC070,0.00,VWS V14.00,2013-05-19 20:40:00,
2013-05-19 16:45:00,57.3,52.8,30.29,NNE,29,2.0,6.0,85,0.00,,OVC070,0.00,VWS V14.00,2013-05-19 20:45:00,
2013-05-19 16:50:00,57.2,52.7,30.28,NNE,30,2.0,6.0,85,0.00,,OVC070,0.00,VWS V14.00,2013-05-19 20:50:00,
2013-05-19 16:55:00,56.9,52.8,30.28,NNE,30,1.0,6.0,86,0.00,,OVC070,0.00,VWS V14.00,2013-05-19 20:55:00,
2013-05-19 17:00:00,56.6,52.8,30.28,NNE,30,1.0,3.0,87,0.00,,OVC070,0.00,VWS V14.00,2013-05-19 21:00:00,
2013-05-19 17:05:00,56.6,53.1,30.28,NNE,30,0.0,3.0,88,0.00,,OVC070,0.00,VWS V14.00,2013-05-19 21:05:00,
2013-05-19 17:10:00,56.4,53.2,30.28,NNE,30,1.0,3.0,89,0.00,,OVC070,0.00,VWS V14.00,2013-05-19 21:10:00,
2013-05-19 17:15:00,56.3,53.4,30.28,NNE,30,2.0,3.0,90,0.00,,OVC070,0.00,VWS V14.00,2013-05-19 21:15:00,
2013-05-19 17:20:00,56.2,53.6,30.28,NNE,30,1.0,3.0,91,0.00,,OVC070,0.00,VWS V14.00,2013-05-19 21:20:00,
2013-05-19 17:25:00,56.2,53.9,30.28,NNE,30,2.0,3.0,92,0.00,,OVC070,0.00,VWS V14.00,2013-05-19 21:25:00,
2013-05-19 17:30:00,56.2,53.9,30.28,NNE,30,0.0,2.0,92,0.00,,OVC070,0.00,VWS V14.00,2013-05-19 21:30:00,
2013-05-19 17:35:00,56.2,53.9,30.29,NNE,30,0.0,2.0,92,0.00,,OVC070,0.00,VWS V14.00,2013-05-19 21:35:00,
2013-05-19 17:40:00,56.3,54.0,30.29,NNE,30,0.0,2.0,92,0.00,,OVC070,0.00,VWS V14.00,2013-05-19 21:40:00,
2013-05-19 17:45:00,56.3,54.0,30.28,NNE,30,0.0,2.0,92,0.00,,OVC070,0.00,VWS V14.00,2013-05-19 21:45:00,
2013-05-19 17:50:00,56.3,54.3,30.28,NNE,30,0.0,2.0,93,0.00,,OVC070,0.00,VWS V14.00,2013-05-19 21:50:00,
2013-05-19 17:55:00,56.3,54.6,30.28,NNE,30,1.0,2.0,94,0.00,,OVC070,0.00,VWS V14.00,2013-05-19 21:55:00,
2013-05-19 18:00:00,56.5,54.8,30.28,NNE,30,0.0,2.0,94,0.00,,OVC046,0.00,VWS V14.00,2013-05-19 22:00:00,
2013-05-19 18:05:00,56.6,55.2,30.28,NNE,30,1.0,2.0,95,0.00,,OVC046,0.00,VWS V14.00,2013-05-19 22:05:00,
2013-05-19 18:10:00,56.9,55.5,30.29,NNE,30,0.0,2.0,95,0.00,,OVC046,0.00,VWS V14.00,2013-05-19 22:10:00,
2013-05-19 18:15:00,56.9,55.5,30.28,NNE,30,0.0,2.0,95,0.00,,OVC046,0.00,VWS V14.00,2013-05-19 22:15:00,
2013-05-19 18:20:00,57.1,55.7,30.29,NNE,30,1.0,2.0,95,0.00,,OVC046,0.00,VWS V14.00,2013-05-19 22:20:00,
2013-05-19 18:25:00,57.1,56.0,30.29,NNE,30,0.0,2.0,96,0.00,,OVC046,0.00,VWS V14.00,2013-05-19 22:25:00,
2013-05-19 18:30:00,56.9,55.8,30.29,NNE,30,0.0,3.0,96,0.00,,OVC046,0.00,VWS V14.00,2013-05-19 22:30:00,
2013-05-19 18:35:00,56.7,55.6,30.29,NNE,29,0.0,4.0,96,0.00,,OVC046,0.00,VWS V14.00,2013-05-19 22:35:00,
2013-05-19 18:40:00,56.6,55.8,30.28,NNE,27,1.0,4.0,97,0.00,,OVC046,0.00,VWS V14.00,2013-05-19 22:40:00,
2013-05-19 18:45:00,56.6,55.8,30.29,NNE,27,0.0,4.0,97,0.01,,OVC046,0.01,VWS V14.00,2013-05-19 22:45:00,
2013-05-19 18:50:00,56.5,55.7,30.28,NNE,27,0.0,4.0,97,0.01,,OVC046,0.01,VWS V14.00,2013-05-19 22:50:00,
2013-05-19 18:55:00,56.3,55.8,30.28,NNE,27,0.0,4.0,98,0.01,,OVC046,0.01,VWS V14.00,2013-05-19 22:55:00,
2013-05-19 19:00:00,56.3,55.8,30.28,NNE,27,1.0,3.0,98,0.01,,-RA,0.01,VWS V14.00,2013-05-19 23:00:00,
2013-05-19 19:05:00,56.0,55.5,30.28,NNE,27,0.0,3.0,98,0.01,,-RA,0.01,VWS V14.00,2013-05-19 23:05:00,
2013-05-19 19:10:00,55.9,55.3,30.27,NNE,27,1.0,3.0,98,0.01,,-RA,0.01,VWS V14.00,2013-05-19 23:10:00,
2013-05-19 19:15:00,55.9,55.3,30.27,NNE,27,0.0,3.0,98,0.01,,-RA,0.01,VWS V14.00,2013-05-19 23:15:00,
2013-05-19 19:20:00,55.6,55.0,30.27,NNE,27,1.0,5.0,98,0.01,,-RA,0.01,VWS V14.00,2013-05-19 23:20:00,
2013-05-19 19:25:00,55.6,55.0,30.28,WSW,252,1.0,5.0,98,0.00,,-RA,0.01,VWS V14.00,2013-05-19 23:25:00,
2013-05-19 19:30:00,55.4,54.8,30.28,SW,222,1.0,4.0,98,0.00,,-RA,0.01,VWS V14.00,2013-05-19 23:30:00,
2013-05-19 19:35:00,55.3,54.8,30.28,SW,222,2.0,4.0,98,0.00,,-RA,0.01,VWS V14.00,2013-05-19 23:35:00,
2013-05-19 19:40:00,55.1,54.5,30.27,SW,218,2.0,4.0,98,0.00,,-RA,0.01,VWS V14.00,2013-05-19 23:40:00,
2013-05-19 19:45:00,55.0,54.7,30.28,SW,219,1.0,4.0,99,0.00,,-RA,0.01,VWS V14.00,2013-05-19 23:45:00,
2013-05-19 19:50:00,54.8,54.5,30.28,SW,219,0.0,4.0,99,0.00,,-RA,0.01,VWS V14.00,2013-05-19 23:50:00,
2013-05-19 19:55:00,54.7,54.4,30.28,SW,219,0.0,4.0,99,0.01,,-RA,0.02,VWS V14.00,2013-05-19 23:55:00,
2013-05-19 20:00:00,54.5,54.2,30.27,SW,219,2.0,3.0,99,0.01,,-RA,0.02,VWS V14.00,2013-05-20 00:00:00,
2013-05-19 20:05:00,54.5,54.2,30.28,SW,219,3.0,3.0,99,0.01,,-RA,0.02,VWS V14.00,2013-05-20 00:05:00,
2013-05-19 20:10:00,54.4,54.4,30.28,SW,221,0.0,3.0,100,0.02,,-RA,0.03,VWS V14.00,2013-05-20 00:10:00,
2013-05-19 20:15:00,54.4,54.4,30.28,SW,221,1.0,3.0,100,0.02,,-RA,0.03,VWS V14.00,2013-05-20 00:15:00,
2013-05-19 20:20:00,54.2,54.2,30.27,SW,226,0.0,6.0,100,0.02,,-RA,0.03,VWS V14.00,2013-05-20 00:20:00,
2013-05-19 20:25:00,54.2,54.2,30.27,SW,226,2.0,6.0,100,0.02,,-RA,0.03,VWS V14.00,2013-05-20 00:25:00,
2013-05-19 20:30:00,54.1,54.1,30.27,SW,226,0.0,2.0,100,0.01,,-RA,0.03,VWS V14.00,2013-05-20 00:30:00,
2013-05-19 20:35:00,54.1,54.1,30.27,SW,226,0.0,3.0,100,0.01,,-RA,0.03,VWS V14.00,2013-05-20 00:35:00,
2013-05-19 20:40:00,54.1,54.1,30.28,SW,226,0.0,3.0,100,0.01,,-RA,0.03,VWS V14.00,2013-05-20 00:40:00,
2013-05-19 20:45:00,54.1,54.1,30.28,SW,226,0.0,3.0,100,0.01,,-RA,0.03,VWS V14.00,2013-05-20 00:45:00,
2013-05-19 20:50:00,54.1,54.1,30.27,SW,226,2.0,3.0,100,0.01,,-RA,0.03,VWS V14.00,2013-05-20 00:50:00,
2013-05-19 20:55:00,54.1,54.1,30.27,SW,226,1.0,4.0,100,0.02,,-RA,0.04,VWS V14.00,2013-05-20 00:55:00,
2013-05-19 21:00:00,54.1,54.1,30.27,SW,226,4.0,4.0,100,0.02,,-RA,0.04,VWS V14.00,2013-05-20 01:00:00,
2013-05-19 21:05:00,54.1,54.1,30.27,SW,226,0.0,4.0,100,0.02,,-RA,0.04,VWS V14.00,2013-05-20 01:05:00,
2013-05-19 21:10:00,54.1,54.1,30.26,SW,225,1.0,4.0,100,0.01,,-RA,0.04,VWS V14.00,2013-05-20 01:10:00,
2013-05-19 21:15:00,54.1,54.1,30.27,SW,221,4.0,6.0,100,0.01,,-RA,0.04,VWS V14.00,2013-05-20 01:15:00,
2013-05-19 21:20:00,54.0,54.0,30.26,South,181,3.0,7.0,100,0.02,,-RA,0.05,VWS V14.00,2013-05-20 01:20:00,
2013-05-19 21:25:00,54.0,54.0,30.26,South,187,0.0,7.0,100,0.02,,-RA,0.05,VWS V14.00,2013-05-20 01:25:00,
2013-05-19 21:30:00,54.0,54.0,30.27,SW,220,1.0,5.0,100,0.02,,-RA,0.05,VWS V14.00,2013-05-20 01:30:00,
2013-05-19 21:35:00,54.0,54.0,30.27,West,260,1.0,5.0,100,0.02,,-RA,0.05,VWS V14.00,2013-05-20 01:35:00,
2013-05-19 21:40:00,54.0,54.0,30.27,West,261,4.0,5.0,100,0.02,,-RA,0.05,VWS V14.00,2013-05-20 01:40:00,
2013-05-19 21:45:00,54.0,54.0,30.26,West,261,0.0,5.0,100,0.01,,-RA,0.05,VWS V14.00,2013-05-20 01:45:00,
2013-05-19 21:50:00,54.0,54.0,30.26,West,261,0.0,5.0,100,0.01,,-RA,0.05,VWS V14.00,2013-05-20 01:50:00,
2013-05-19 21:55:00,54.0,54.0,30.26,WSW,257,1.0,5.0,100,0.02,,-RA,0.06,VWS V14.00,2013-05-20 01:55:00,
2013-05-19 22:00:00,54.0,54.0,30.26,WSW,257,1.0,4.0,100,0.02,,-RA,0.06,VWS V14.00,2013-05-20 02:00:00,
2013-05-19 22:05:00,54.0,54.0,30.26,WSW,257,1.0,4.0,100,0.02,,-RA,0.06,VWS V14.00,2013-05-20 02:05:00,
2013-05-19 22:10:00,54.0,54.0,30.25,SSW,192,1.0,5.0,100,0.02,,-RA,0.06,VWS V14.00,2013-05-20 02:10:00,
2013-05-19 22:15:00,54.0,54.0,30.25,SSW,198,1.0,6.0,100,0.02,,-RA,0.06,VWS V14.00,2013-05-20 02:15:00,
2013-05-19 22:20:00,54.1,54.1,30.25,SSW,198,1.0,6.0,100,0.01,,-RA,0.06,VWS V14.00,2013-05-20 02:20:00,
2013-05-19 22:25:00,54.1,54.1,30.25,SSE,168,1.0,6.0,100,0.01,,-RA,0.06,VWS V14.00,2013-05-20 02:25:00,
2013-05-19 22:30:00,54.1,54.1,30.25,SE,128,1.0,5.0,100,0.01,,-RA,0.06,VWS V14.00,2013-05-20 02:30:00,
2013-05-19 22:35:00,54.1,54.1,30.25,SE,128,0.0,5.0,100,0.01,,-RA,0.06,VWS V14.00,2013-05-20 02:35:00,
2013-05-19 22:40:00,54.0,54.0,30.24,WSW,239,1.0,6.0,100,0.01,,-RA,0.06,VWS V14.00,2013-05-20 02:40:00,
2013-05-19 22:45:00,54.0,54.0,30.25,South,187,2.0,6.0,100,0.01,,-RA,0.06,VWS V14.00,2013-05-20 02:45:00,
2013-05-19 22:50:00,54.0,54.0,30.24,South,187,0.0,6.0,100,0.01,,-RA,0.06,VWS V14.00,2013-05-20 02:50:00,
2013-05-19 22:55:00,54.0,54.0,30.24,South,187,2.0,6.0,100,0.01,,-RA,0.06,VWS V14.00,2013-05-20 02:55:00,
2013-05-19 23:00:00,54.0,54.0,30.24,South,187,0.0,2.0,100,0.01,,-RA,0.07,VWS V14.00,2013-05-20 03:00:00,
2013-05-19 23:05:00,54.0,54.0,30.24,South,190,1.0,4.0,100,0.02,,-RA,0.07,VWS V14.00,2013-05-20 03:05:00,
2013-05-19 23:10:00,54.0,54.0,30.24,SSW,192,0.0,4.0,100,0.01,,-RA,0.07,VWS V14.00,2013-05-20 03:10:00,
2013-05-19 23:15:00,54.1,54.1,30.24,SSW,192,0.0,4.0,100,0.01,,-RA,0.07,VWS V14.00,2013-05-20 03:15:00,
2013-05-19 23:20:00,54.1,54.1,30.23,SSW,208,0.0,4.0,100,0.01,,-RA,0.07,VWS V14.00,2013-05-20 03:20:00,
2013-05-19 23:25:00,54.1,54.1,30.23,SSW,208,3.0,4.0,100,0.01,,-RA,0.07,VWS V14.00,2013-05-20 03:25:00,
2013-05-19 23:30:00,54.1,54.1,30.23,SSW,208,1.0,2.0,100,0.01,,-RA,0.07,VWS V14.00,2013-05-20 03:30:00,
2013-05-19 23:35:00,54.1,54.1,30.23,SSW,210,0.0,4.0,100,0.02,,-RA,0.08,VWS V14.00,2013-05-20 03:35:00,
2013-05-19 23:40:00,54.1,54.1,30.23,West,277,1.0,6.0,100,0.02,,-RA,0.08,VWS V14.00,2013-05-20 03:40:00,
2013-05-19 23:45:00,54.1,54.1,30.23,West,271,3.0,6.0,100,0.02,,-RA,0.08,VWS V14.00,2013-05-20 03:45:00,
2013-05-19 23:50:00,54.1,54.1,30.22,West,262,1.0,6.0,100,0.02,,-RA,0.08,VWS V14.00,2013-05-20 03:50:00,
2013-05-19 23:55:00,54.1,54.1,30.22,West,262,1.0,6.0,100,0.02,,-RA,0.09,VWS V14.00,2013-05-20 03:55:00,